ホーチミン の空港の天気 - METARとTAF

タンソンニャット国際空港 (ホーチミン) ( VVTS / SGN ) - ベトナム ホーチミン市
飛行場実況気象(Metar)
観測時間08/22 23:30 ICT (08/22 16:30 UTC)
風向・風速西南西 2m/s
視程10km以上
天気現象
少しの雲 雲底高度 520m
全天の4割程度の雲 雲底高度 1520m
気温27℃
湿度89%
気圧1010hPa
METARVVTS 221630Z 25003KT 9999 FEW017 SCT050 27/25 Q1010 NOSIG
過去の天気等 Google飛行場航空写真 Wunderground天気予報

過去48時間のMETAR

飛行場予報(TAF)
発表時間: 8/22 18:00 ICT (8/22 11:00 UTC)
予報対象時間: 22日19時 ICT ~ 24日1時 ICT
風向・風速西 3m/s
視程10km以上
全天の4割程度の雲 雲底高度 460m
全天の4割程度の雲 雲底高度 1520m
23日14時 ICT ~ 23日18時 ICT に一時的に
風向・風速西 8m/s 瞬間風速 13m/s
視程3000m
天気現象雷雨
全天の8割程度の雲 雲底高度 400m
全天の4割程度の積乱雲 雲底高度 460m
TAF VVTS 221100Z 2212/2318 26006KT 9999 SCT015 SCT050
TEMPO 2307/2311 26015G25KT 3000 TSRA BKN013 SCT015CB